createdAt,value
2022-12-04T00:01:57.401Z,94.47
2022-12-04T00:04:45.234Z,94.57
2022-12-04T00:07:33.254Z,94.83
2022-12-04T00:10:20.813Z,94.88
2022-12-04T00:13:11.108Z,95.13
2022-12-04T00:15:59.602Z,94.61
2022-12-04T00:18:47.580Z,94.66
2022-12-04T00:21:35.417Z,94.57
2022-12-04T00:24:54.166Z,94.57
2022-12-04T00:27:52.322Z,94.82
2022-12-04T00:30:47.317Z,94.97
2022-12-04T00:33:35.442Z,94.96
2022-12-04T00:36:26.303Z,95.07
2022-12-04T00:39:13.860Z,94.75
2022-12-04T00:42:23.132Z,95.10
2022-12-04T00:45:25.923Z,94.81
2022-12-04T00:48:18.105Z,94.73
2022-12-04T00:51:29.671Z,95.14
2022-12-04T00:54:30.658Z,95.15
2022-12-04T00:57:19.745Z,95.53
2022-12-04T01:00:13.096Z,95.51
2022-12-04T01:03:08.467Z,95.54
2022-12-04T01:05:58.997Z,95.27
2022-12-04T01:09:14.599Z,95.51
2022-12-04T01:12:17.588Z,95.38
2022-12-04T01:15:20.534Z,95.87
2022-12-04T01:18:14.710Z,95.53
2022-12-04T01:21:20.954Z,95.60
2022-12-04T01:24:15.691Z,95.88
2022-12-04T01:27:07.850Z,95.79
2022-12-04T01:29:55.865Z,95.89
2022-12-04T01:32:43.639Z,96.13
2022-12-04T01:35:30.999Z,96.35
2022-12-04T01:38:18.791Z,96.57
2022-12-04T01:41:08.224Z,96.85
2022-12-04T01:44:16.910Z,96.97
2022-12-04T01:47:04.510Z,97.06
2022-12-04T01:49:52.093Z,97.03
2022-12-04T01:52:40.017Z,96.59
2022-12-04T01:55:27.643Z,96.63
2022-12-04T01:58:17.623Z,96.68
2022-12-04T02:01:09.116Z,96.78
2022-12-04T02:03:59.207Z,96.71
2022-12-04T02:06:46.600Z,96.57
2022-12-04T02:09:35.465Z,96.84
2022-12-04T02:12:41.443Z,97.00
2022-12-04T02:15:39.187Z,96.77
2022-12-04T02:18:46.322Z,96.90
2022-12-04T02:21:41.337Z,96.93
2022-12-04T02:25:01.987Z,97.02
2022-12-04T02:28:25.986Z,97.07
2022-12-04T02:31:21.183Z,96.76
2022-12-04T02:35:04.170Z,96.81
2022-12-04T02:38:02.009Z,96.76
2022-12-04T02:41:12.840Z,96.56
2022-12-04T02:44:20.562Z,96.50
2022-12-04T02:47:21.656Z,96.76
2022-12-04T02:50:17.489Z,96.83
2022-12-04T02:53:14.264Z,96.89
2022-12-04T02:56:25.260Z,97.11
2022-12-04T02:59:33.840Z,97.26
2022-12-04T03:02:31.778Z,97.33
2022-12-04T03:05:25.400Z,97.33
2022-12-04T03:08:19.552Z,97.58
2022-12-04T03:11:06.988Z,97.73
2022-12-04T03:14:02.619Z,98.02
2022-12-04T03:16:53.435Z,98.00
2022-12-04T03:19:48.919Z,97.94
2022-12-04T03:22:40.930Z,97.65
2022-12-04T03:25:43.556Z,97.86
2022-12-04T03:29:08.476Z,98.00
2022-12-04T03:32:14.745Z,98.16
2022-12-04T03:35:10.121Z,97.95
2022-12-04T03:38:12.710Z,97.67
2022-12-04T03:41:20.968Z,97.91
2022-12-04T03:44:17.999Z,98.10
2022-12-04T03:47:29.411Z,97.96
2022-12-04T03:50:29.601Z,98.20
2022-12-04T03:53:39.147Z,98.17
2022-12-04T03:56:43.404Z,98.64
2022-12-04T03:59:40.197Z,98.34
2022-12-04T04:02:34.712Z,98.32
2022-12-04T04:05:24.108Z,98.24
2022-12-04T04:08:27.915Z,98.22
2022-12-04T04:11:23.755Z,98.47
2022-12-04T04:14:40.665Z,98.85
2022-12-04T04:17:52.228Z,98.23
2022-12-04T04:21:16.951Z,98.14
2022-12-04T04:24:16.533Z,98.10
2022-12-04T04:27:05.138Z,97.96
2022-12-04T04:29:52.944Z,98.04
2022-12-04T04:32:55.554Z,98.06
2022-12-04T04:35:57.660Z,98.24
2022-12-04T04:39:02.794Z,98.33
2022-12-04T04:42:03.572Z,98.54
2022-12-04T04:45:02.681Z,98.91
2022-12-04T04:48:09.868Z,99.04
2022-12-04T04:51:00.241Z,99.01
2022-12-04T04:53:52.883Z,99.14
2022-12-04T04:56:46.129Z,99.09
2022-12-04T04:59:34.716Z,99.18
2022-12-04T05:02:22.375Z,99.23
2022-12-04T05:05:10.373Z,99.31
2022-12-04T05:07:58.093Z,99.59
2022-12-04T05:10:45.725Z,99.64
2022-12-04T05:13:33.729Z,99.74
2022-12-04T05:16:21.299Z,99.87
2022-12-04T05:19:27.700Z,99.87
2022-12-04T05:22:15.269Z,99.96
2022-12-04T05:25:04.765Z,100.00
2022-12-04T05:27:52.721Z,100.00
2022-12-04T05:30:40.379Z,100.00
2022-12-04T05:33:28.621Z,99.97
2022-12-04T05:36:16.237Z,99.96
2022-12-04T05:39:04.259Z,99.99
2022-12-04T05:41:52.034Z,99.98
2022-12-04T05:44:39.771Z,100.00
2022-12-04T05:47:27.629Z,100.00
2022-12-04T05:50:15.501Z,100.00
2022-12-04T05:53:03.705Z,100.00
2022-12-04T05:55:59.839Z,100.00
2022-12-04T05:58:47.334Z,100.00
2022-12-04T06:01:35.154Z,100.00
2022-12-04T06:04:22.757Z,100.00
2022-12-04T06:07:11.514Z,100.00
2022-12-04T06:09:59.059Z,100.00
2022-12-04T06:12:46.365Z,100.00
2022-12-04T06:15:39.182Z,100.00
2022-12-04T06:18:27.049Z,100.00
2022-12-04T06:21:14.879Z,100.00
2022-12-04T06:24:03.459Z,100.00
2022-12-04T06:27:26.094Z,100.00
2022-12-04T06:30:03.360Z,100.00
2022-12-04T06:32:50.972Z,100.00
2022-12-04T06:35:38.628Z,100.00
2022-12-04T06:38:26.452Z,100.00
2022-12-04T06:41:18.026Z,100.00
2022-12-04T06:44:05.600Z,100.00
2022-12-04T06:46:54.871Z,100.00
2022-12-04T06:49:42.857Z,100.00
2022-12-04T06:52:34.207Z,100.00
2022-12-04T06:55:23.658Z,100.00
2022-12-04T06:58:11.253Z,100.00
2022-12-04T07:00:59.379Z,100.00
2022-12-04T07:03:51.623Z,100.00
2022-12-04T07:06:40.715Z,100.00
2022-12-04T07:09:28.382Z,100.00
2022-12-04T07:12:16.545Z,100.00
2022-12-04T07:15:04.699Z,100.00
2022-12-04T07:17:52.315Z,100.00
2022-12-04T07:20:40.740Z,100.00
2022-12-04T07:23:28.714Z,100.00
2022-12-04T07:26:16.046Z,100.00
2022-12-04T07:29:03.571Z,100.00
2022-12-04T07:31:51.322Z,100.00
2022-12-04T07:34:38.625Z,100.00
2022-12-04T07:37:26.233Z,100.00
2022-12-04T07:40:22.359Z,100.00
2022-12-04T07:43:10.072Z,100.00
2022-12-04T07:45:59.912Z,100.00
2022-12-04T07:48:47.864Z,100.00
2022-12-04T07:51:35.825Z,100.00
2022-12-04T07:54:23.129Z,100.00
2022-12-04T07:57:10.973Z,100.00
2022-12-04T07:59:59.205Z,100.00
2022-12-04T08:02:47.368Z,100.00
2022-12-04T08:05:35.100Z,100.00
2022-12-04T08:08:22.713Z,100.00
2022-12-04T08:11:17.805Z,100.00
2022-12-04T08:14:08.930Z,100.00
2022-12-04T08:17:21.588Z,100.00
2022-12-04T08:20:12.721Z,100.00
2022-12-04T08:23:03.734Z,100.00
2022-12-04T08:25:51.531Z,100.00
2022-12-04T08:28:40.827Z,100.00
2022-12-04T08:31:31.086Z,100.00
2022-12-04T08:34:23.572Z,100.00
2022-12-04T08:37:12.369Z,100.00
2022-12-04T08:39:59.758Z,100.00
2022-12-04T08:42:47.291Z,99.95
2022-12-04T08:45:35.430Z,99.90
2022-12-04T08:48:23.780Z,99.93
2022-12-04T08:51:20.613Z,99.67
2022-12-04T08:54:13.658Z,99.95
2022-12-04T08:57:05.131Z,99.85
2022-12-04T08:59:56.055Z,99.91
2022-12-04T09:02:49.003Z,99.91
2022-12-04T09:05:39.311Z,99.69
2022-12-04T09:08:31.366Z,99.77
2022-12-04T09:11:26.896Z,99.50
2022-12-04T09:14:21.213Z,99.76
2022-12-04T09:17:10.978Z,99.73
2022-12-04T09:20:14.589Z,99.47
2022-12-04T09:23:06.854Z,99.42
2022-12-04T09:26:01.728Z,99.64
2022-12-04T09:28:58.546Z,99.80
2022-12-04T09:31:48.653Z,99.60
2022-12-04T09:34:38.415Z,99.16
2022-12-04T09:37:30.956Z,99.32
2022-12-04T09:40:37.526Z,99.34
2022-12-04T09:43:50.932Z,99.23
2022-12-04T09:47:22.908Z,99.44
2022-12-04T09:50:44.137Z,99.38
2022-12-04T09:53:57.277Z,99.33
2022-12-04T09:57:25.893Z,99.17
2022-12-04T10:00:22.606Z,99.13
2022-12-04T10:03:22.235Z,99.07
2022-12-04T10:07:16.871Z,99.22
2022-12-04T10:10:36.306Z,99.08
2022-12-04T10:13:52.186Z,98.93
2022-12-04T10:17:20.155Z,99.04
2022-12-04T10:20:43.388Z,99.39
2022-12-04T10:24:02.613Z,98.85
2022-12-04T10:26:52.851Z,99.02
2022-12-04T10:29:47.143Z,99.12
2022-12-04T10:32:46.574Z,98.98
2022-12-04T10:35:41.441Z,99.22
2022-12-04T10:38:42.276Z,99.29
2022-12-04T10:41:46.802Z,99.12
2022-12-04T10:44:34.683Z,99.17
2022-12-04T10:47:24.804Z,98.93
2022-12-04T10:50:29.378Z,99.28
2022-12-04T10:53:17.026Z,99.26
2022-12-04T10:56:25.929Z,98.93
2022-12-04T10:59:18.720Z,99.32
2022-12-04T11:02:31.047Z,99.03
2022-12-04T11:05:34.358Z,99.31
2022-12-04T11:08:26.563Z,99.23
2022-12-04T11:11:22.576Z,99.78
2022-12-04T11:14:19.823Z,99.64
2022-12-04T11:17:16.552Z,99.24
2022-12-04T11:20:21.990Z,99.22
2022-12-04T11:23:17.652Z,98.90
2022-12-04T11:26:07.610Z,99.33
2022-12-04T11:29:02.356Z,99.13
2022-12-04T11:32:02.800Z,99.03
2022-12-04T11:34:59.635Z,99.26
2022-12-04T11:38:13.860Z,99.90
2022-12-04T11:41:04.155Z,100.00
2022-12-04T11:43:55.315Z,99.91
2022-12-04T11:46:57.111Z,99.33
2022-12-04T11:49:46.024Z,99.03
2022-12-04T11:53:04.665Z,99.01
2022-12-04T11:56:01.698Z,99.28
2022-12-04T11:59:04.649Z,99.44
2022-12-04T12:02:26.318Z,99.97
2022-12-04T12:05:32.433Z,99.98
2022-12-04T12:08:51.758Z,100.00
2022-12-04T12:12:02.445Z,100.00
2022-12-04T12:15:10.186Z,100.00
2022-12-04T12:18:25.514Z,100.00
2022-12-04T12:21:24.276Z,100.00
2022-12-04T12:24:23.556Z,100.00
2022-12-04T12:27:40.896Z,100.00
2022-12-04T12:31:05.967Z,100.00
2022-12-04T12:34:07.974Z,100.00
2022-12-04T12:37:01.009Z,100.00
2022-12-04T12:40:01.272Z,100.00
2022-12-04T12:43:22.906Z,100.00
2022-12-04T12:46:18.515Z,100.00
2022-12-04T12:49:38.363Z,100.00
2022-12-04T12:52:47.880Z,100.00
2022-12-04T12:55:59.501Z,100.00
2022-12-04T12:59:01.472Z,100.00
2022-12-04T13:02:01.049Z,100.00
2022-12-04T13:04:53.702Z,100.00
2022-12-04T13:08:10.970Z,100.00
2022-12-04T13:11:02.816Z,100.00
2022-12-04T13:14:03.702Z,100.00
2022-12-04T13:16:58.995Z,100.00
2022-12-04T13:19:55.587Z,100.00
2022-12-04T13:23:12.613Z,100.00
2022-12-04T13:26:28.615Z,100.00
2022-12-04T13:29:37.103Z,100.00
2022-12-04T13:32:48.118Z,100.00
2022-12-04T13:36:09.070Z,100.00
2022-12-04T13:39:52.913Z,100.00
2022-12-04T13:42:44.799Z,100.00
2022-12-04T13:45:34.144Z,100.00
2022-12-04T13:48:43.448Z,100.00
2022-12-04T13:51:41.244Z,100.00
2022-12-04T13:54:35.846Z,100.00
2022-12-04T13:57:25.102Z,100.00
2022-12-04T14:00:32.342Z,100.00
2022-12-04T14:03:33.184Z,100.00
2022-12-04T14:06:41.221Z,100.00
2022-12-04T14:09:54.621Z,100.00
2022-12-04T14:12:49.919Z,100.00
2022-12-04T14:15:39.825Z,100.00
2022-12-04T14:18:30.544Z,100.00
2022-12-04T14:21:18.252Z,100.00
2022-12-04T14:24:39.060Z,100.00
2022-12-04T14:27:41.972Z,100.00
2022-12-04T14:30:40.180Z,100.00
2022-12-04T14:33:30.838Z,100.00
2022-12-04T14:36:29.106Z,100.00
2022-12-04T14:39:27.245Z,100.00
2022-12-04T14:42:23.426Z,100.00
2022-12-04T14:45:38.889Z,100.00
2022-12-04T14:48:54.142Z,100.00
2022-12-04T14:52:17.768Z,100.00
2022-12-04T14:55:23.967Z,100.00
2022-12-04T14:58:35.780Z,100.00
2022-12-04T15:01:37.708Z,100.00
2022-12-04T15:04:29.621Z,100.00
2022-12-04T15:07:28.388Z,100.00
2022-12-04T15:10:50.491Z,100.00
2022-12-04T15:13:39.593Z,100.00
2022-12-04T15:16:29.408Z,100.00
2022-12-04T15:19:18.920Z,100.00
2022-12-04T15:22:19.467Z,100.00
2022-12-04T15:25:16.749Z,100.00
2022-12-04T15:28:16.746Z,100.00
2022-12-04T15:31:10.373Z,100.00
2022-12-04T15:34:08.475Z,100.00
2022-12-04T15:37:06.685Z,100.00
2022-12-04T15:39:56.162Z,100.00
2022-12-04T15:42:44.089Z,100.00
2022-12-04T15:45:34.370Z,100.00
2022-12-04T15:48:31.620Z,100.00
2022-12-04T15:51:22.026Z,100.00
2022-12-04T15:54:23.075Z,100.00
2022-12-04T15:57:28.282Z,100.00
2022-12-04T16:00:38.751Z,100.00
2022-12-04T16:03:36.842Z,100.00
2022-12-04T16:06:29.003Z,100.00
2022-12-04T16:09:26.111Z,100.00
2022-12-04T16:12:19.498Z,100.00
2022-12-04T16:15:08.026Z,100.00
2022-12-04T16:17:55.597Z,100.00
2022-12-04T16:20:43.186Z,100.00
2022-12-04T16:23:32.585Z,100.00
2022-12-04T16:26:20.680Z,100.00
2022-12-04T16:29:09.461Z,100.00
2022-12-04T16:32:02.699Z,100.00
2022-12-04T16:34:50.907Z,100.00
2022-12-04T16:37:38.696Z,100.00
2022-12-04T16:40:26.326Z,100.00
2022-12-04T16:43:16.344Z,100.00
2022-12-04T16:46:04.311Z,100.00
2022-12-04T16:48:52.093Z,100.00
2022-12-04T16:51:45.964Z,100.00
2022-12-04T16:54:34.627Z,100.00
2022-12-04T16:57:22.407Z,100.00
2022-12-04T17:00:17.730Z,100.00
2022-12-04T17:03:05.854Z,100.00
2022-12-04T17:05:54.692Z,100.00
2022-12-04T17:08:42.638Z,100.00
2022-12-04T17:11:30.210Z,100.00
2022-12-04T17:14:17.839Z,100.00
2022-12-04T17:17:07.509Z,100.00
2022-12-04T17:19:54.881Z,100.00
2022-12-04T17:22:42.994Z,100.00
2022-12-04T17:25:30.633Z,100.00
2022-12-04T17:28:21.626Z,100.00
2022-12-04T17:31:29.451Z,100.00
2022-12-04T17:34:17.216Z,100.00
2022-12-04T17:37:05.023Z,100.00
2022-12-04T17:39:52.977Z,100.00
2022-12-04T17:42:44.336Z,100.00
2022-12-04T17:45:32.283Z,100.00
2022-12-04T17:48:20.082Z,100.00
2022-12-04T17:51:15.257Z,100.00
2022-12-04T17:54:04.352Z,100.00
2022-12-04T17:56:57.562Z,100.00
2022-12-04T17:59:46.028Z,100.00
2022-12-04T18:02:33.988Z,100.00
2022-12-04T18:05:26.641Z,100.00
2022-12-04T18:08:19.876Z,100.00
2022-12-04T18:11:08.621Z,100.00
2022-12-04T18:14:11.997Z,100.00
2022-12-04T18:17:01.421Z,100.00
2022-12-04T18:19:58.661Z,100.00
2022-12-04T18:22:48.950Z,100.00
2022-12-04T18:25:36.650Z,100.00
2022-12-04T18:28:38.837Z,100.00
2022-12-04T18:31:34.210Z,100.00
2022-12-04T18:34:26.959Z,100.00
2022-12-04T18:37:16.195Z,100.00
2022-12-04T18:40:07.290Z,100.00
2022-12-04T18:42:58.475Z,100.00
2022-12-04T18:45:47.374Z,100.00
2022-12-04T18:48:36.925Z,100.00
2022-12-04T18:51:46.973Z,100.00
2022-12-04T18:54:36.728Z,100.00
2022-12-04T18:57:24.354Z,100.00
2022-12-04T19:00:12.433Z,100.00
2022-12-04T19:03:00.203Z,100.00
2022-12-04T19:05:51.703Z,100.00
2022-12-04T19:08:43.188Z,100.00
2022-12-04T19:11:31.518Z,100.00
2022-12-04T19:14:23.346Z,100.00
2022-12-04T19:17:11.823Z,100.00
2022-12-04T19:20:00.505Z,100.00
2022-12-04T19:22:49.127Z,100.00
2022-12-04T19:25:37.247Z,100.00
2022-12-04T19:28:27.738Z,100.00
2022-12-04T19:31:34.336Z,100.00
2022-12-04T19:34:22.147Z,100.00
2022-12-04T19:37:09.842Z,100.00
2022-12-04T19:39:58.240Z,100.00
2022-12-04T19:42:46.610Z,100.00
2022-12-04T19:45:34.647Z,100.00
2022-12-04T19:48:22.281Z,100.00
2022-12-04T19:51:15.117Z,100.00
2022-12-04T19:54:02.782Z,100.00
2022-12-04T19:56:52.745Z,100.00
2022-12-04T19:59:45.731Z,100.00
2022-12-04T20:02:34.719Z,100.00
2022-12-04T20:05:22.854Z,100.00
2022-12-04T20:11:11.828Z,100.00
2022-12-04T20:14:02.258Z,100.00
2022-12-04T20:16:50.390Z,100.00
2022-12-04T20:19:38.156Z,100.00
2022-12-04T20:22:26.118Z,100.00
2022-12-04T20:25:13.619Z,100.00
2022-12-04T20:28:01.093Z,100.00
2022-12-04T20:30:50.102Z,100.00
2022-12-04T20:33:37.856Z,100.00
2022-12-04T20:36:28.831Z,100.00
2022-12-04T20:39:19.739Z,100.00
2022-12-04T20:42:07.589Z,100.00
2022-12-04T20:44:58.207Z,100.00
2022-12-04T20:47:46.041Z,100.00
2022-12-04T20:50:33.606Z,100.00
2022-12-04T20:53:21.648Z,100.00
2022-12-04T20:56:09.029Z,100.00
2022-12-04T20:58:58.522Z,100.00
2022-12-04T21:01:49.118Z,100.00
2022-12-04T21:04:38.869Z,100.00
2022-12-04T21:07:26.594Z,100.00
2022-12-04T21:10:14.391Z,100.00
2022-12-04T21:13:23.941Z,100.00
2022-12-04T21:16:11.779Z,100.00
2022-12-04T21:18:59.612Z,100.00
2022-12-04T21:21:48.327Z,100.00
2022-12-04T21:24:38.984Z,100.00
2022-12-04T21:27:26.454Z,100.00
2022-12-04T21:30:14.485Z,100.00
2022-12-04T21:33:01.958Z,100.00
2022-12-04T21:35:49.558Z,100.00
2022-12-04T21:38:40.207Z,100.00
2022-12-04T21:41:51.373Z,100.00
2022-12-04T21:44:39.402Z,100.00
2022-12-04T21:47:29.018Z,100.00
2022-12-04T21:50:19.249Z,100.00
2022-12-04T21:53:06.892Z,100.00
2022-12-04T21:55:57.253Z,100.00
2022-12-04T21:58:44.855Z,100.00
2022-12-04T22:01:33.046Z,100.00
2022-12-04T22:04:21.953Z,100.00
2022-12-04T22:07:11.038Z,100.00
2022-12-04T22:09:58.808Z,100.00
2022-12-04T22:12:50.549Z,100.00
2022-12-04T22:15:44.725Z,100.00
2022-12-04T22:18:33.692Z,100.00
2022-12-04T22:21:21.563Z,100.00
2022-12-04T22:24:10.672Z,100.00
2022-12-04T22:26:58.655Z,100.00
2022-12-04T22:29:51.125Z,100.00
2022-12-04T22:32:39.404Z,100.00
2022-12-04T22:35:26.793Z,100.00
2022-12-04T22:38:14.265Z,100.00
2022-12-04T22:41:05.958Z,100.00
2022-12-04T22:43:56.530Z,100.00
2022-12-04T22:46:44.278Z,100.00
2022-12-04T22:49:31.907Z,100.00
2022-12-04T22:52:19.589Z,100.00
2022-12-04T22:55:07.498Z,100.00
2022-12-04T22:57:55.381Z,100.00
2022-12-04T23:00:43.075Z,100.00
2022-12-04T23:03:30.910Z,100.00
2022-12-04T23:06:21.351Z,100.00
2022-12-04T23:09:16.302Z,100.00
2022-12-04T23:12:05.355Z,100.00
2022-12-04T23:14:53.300Z,100.00
2022-12-04T23:17:40.974Z,100.00
2022-12-04T23:20:29.270Z,100.00
2022-12-04T23:23:17.261Z,100.00
2022-12-04T23:26:07.855Z,100.00
2022-12-04T23:28:56.393Z,100.00
2022-12-04T23:31:43.879Z,100.00
2022-12-04T23:34:31.608Z,100.00
2022-12-04T23:37:19.368Z,100.00
2022-12-04T23:40:08.192Z,100.00
2022-12-04T23:43:02.049Z,100.00
2022-12-04T23:45:49.957Z,100.00
2022-12-04T23:48:38.772Z,100.00
2022-12-04T23:51:27.509Z,100.00
2022-12-04T23:54:15.050Z,100.00
2022-12-04T23:57:02.518Z,100.00
2022-12-04T23:59:51.892Z,100.00
